createdAt,value
2022-09-05T00:01:53.406Z,53.31
2022-09-05T00:04:37.962Z,52.45
2022-09-05T00:07:31.225Z,53.40
2022-09-05T00:10:22.426Z,53.15
2022-09-05T00:13:07.069Z,53.23
2022-09-05T00:15:37.409Z,53.01
2022-09-05T00:24:17.136Z,53.05
2022-09-05T00:24:22.578Z,53.31
2022-09-05T00:24:42.148Z,53.55
2022-09-05T00:27:24.043Z,53.69
2022-09-05T00:31:06.226Z,53.22
2022-09-05T00:33:26.088Z,53.91
2022-09-05T00:36:16.033Z,53.54
2022-09-05T00:38:56.942Z,53.82
2022-09-05T00:41:24.158Z,53.57
2022-09-05T00:43:52.425Z,54.02
2022-09-05T00:46:25.358Z,54.19
2022-09-05T00:49:23.333Z,53.90
2022-09-05T00:52:10.266Z,54.35
2022-09-05T00:55:02.288Z,54.37
2022-09-05T00:57:46.827Z,54.24
2022-09-05T01:00:19.962Z,54.43
2022-09-05T01:03:02.868Z,54.40
2022-09-05T01:05:59.726Z,55.15
2022-09-05T01:08:54.068Z,54.87
2022-09-05T01:11:32.489Z,54.95
2022-09-05T01:14:21.490Z,54.71
2022-09-05T01:16:54.027Z,55.21
2022-09-05T01:20:18.588Z,55.02
2022-09-05T01:23:24.598Z,55.23
2022-09-05T01:26:24.938Z,55.11
2022-09-05T01:29:17.128Z,55.14
2022-09-05T01:32:11.779Z,55.08
2022-09-05T01:34:50.365Z,55.11
2022-09-05T01:37:33.062Z,55.69
2022-09-05T01:40:22.456Z,55.45
2022-09-05T01:43:20.491Z,55.09
2022-09-05T01:46:11.669Z,55.16
2022-09-05T01:48:53.403Z,55.62
2022-09-05T01:51:41.443Z,55.75
2022-09-05T01:54:24.941Z,56.00
2022-09-05T01:57:12.841Z,56.02
2022-09-05T01:59:54.726Z,55.89
2022-09-05T02:02:59.052Z,56.09
2022-09-05T02:05:53.369Z,55.77
2022-09-05T02:08:47.387Z,56.30
2022-09-05T02:11:14.838Z,56.05
2022-09-05T02:13:52.451Z,56.49
2022-09-05T02:16:44.413Z,56.07
2022-09-05T02:19:22.382Z,56.03
2022-09-05T02:22:18.045Z,56.53
2022-09-05T02:24:59.833Z,56.27
2022-09-05T02:28:04.209Z,56.47
2022-09-05T02:30:55.787Z,56.61
2022-09-05T02:33:46.897Z,56.51
2022-09-05T02:36:25.375Z,57.10
2022-09-05T02:45:01.440Z,56.84
2022-09-05T02:45:13.054Z,57.46
2022-09-05T02:45:19.431Z,56.98
2022-09-05T02:48:09.674Z,57.09
2022-09-05T02:55:56.095Z,56.68
2022-09-05T02:57:33.864Z,56.97
2022-09-05T02:58:08.075Z,56.75
2022-09-05T03:00:21.570Z,57.05
2022-09-05T03:03:16.925Z,57.42
2022-09-05T03:06:12.373Z,56.76
2022-09-05T03:09:08.080Z,56.94
2022-09-05T03:12:27.177Z,57.39
2022-09-05T03:15:22.489Z,57.87
2022-09-05T03:18:20.847Z,57.55
2022-09-05T03:21:12.301Z,57.64
2022-09-05T03:24:10.133Z,57.39
2022-09-05T03:27:01.374Z,57.59
2022-09-05T03:30:05.221Z,57.45
2022-09-05T03:33:02.084Z,56.84
2022-09-05T03:35:50.379Z,57.23
2022-09-05T03:39:11.404Z,57.72
2022-09-05T03:42:05.631Z,57.17
2022-09-05T03:44:48.637Z,57.91
2022-09-05T03:47:51.619Z,57.81
2022-09-05T03:54:36.166Z,57.38
2022-09-05T03:57:14.718Z,57.54
2022-09-05T03:57:24.064Z,57.58
2022-09-05T04:00:09.481Z,57.61
2022-09-05T04:06:44.164Z,57.61
2022-09-05T04:08:16.873Z,57.18
2022-09-05T04:09:08.999Z,57.77
2022-09-05T04:11:45.386Z,58.33
2022-09-05T04:14:24.218Z,57.97
2022-09-05T04:16:58.134Z,58.18
2022-09-05T04:19:32.928Z,57.28
2022-09-05T04:22:22.846Z,57.71
2022-09-05T04:25:02.841Z,58.13
2022-09-05T04:27:46.451Z,58.25
2022-09-05T04:30:39.389Z,57.51
2022-09-05T04:33:22.179Z,57.94
2022-09-05T04:36:25.831Z,58.18
2022-09-05T04:39:17.213Z,58.41
2022-09-05T04:41:51.672Z,58.00
2022-09-05T04:44:37.505Z,57.63
2022-09-05T04:47:13.105Z,57.73
2022-09-05T04:49:55.462Z,58.35
2022-09-05T04:52:48.907Z,58.28
2022-09-05T04:55:21.567Z,57.97
2022-09-05T04:58:10.881Z,57.73
2022-09-05T05:06:01.443Z,58.27
2022-09-05T05:06:12.234Z,58.26
2022-09-05T05:06:46.096Z,58.28
2022-09-05T05:09:29.352Z,58.72
2022-09-05T05:18:03.805Z,58.32
2022-09-05T05:18:08.956Z,58.34
2022-09-05T05:18:59.547Z,58.48
2022-09-05T05:21:31.398Z,58.20
2022-09-05T05:24:22.960Z,58.40
2022-09-05T05:26:58.517Z,58.46
2022-09-05T05:29:38.214Z,58.12
2022-09-05T05:32:06.926Z,58.41
2022-09-05T05:34:43.077Z,58.49
2022-09-05T05:37:32.062Z,58.76
2022-09-05T05:40:09.745Z,58.23
2022-09-05T05:42:41.514Z,58.11
2022-09-05T05:45:25.741Z,57.76
2022-09-05T05:47:59.462Z,57.77
2022-09-05T05:50:51.810Z,57.77
2022-09-05T05:53:41.054Z,57.40
2022-09-05T05:56:18.521Z,57.57
2022-09-05T05:59:03.397Z,57.21
2022-09-05T06:01:48.021Z,57.40
2022-09-05T06:04:52.463Z,58.09
2022-09-05T06:11:07.399Z,57.42
2022-09-05T06:14:56.181Z,57.19
2022-09-05T06:15:04.946Z,57.21
2022-09-05T06:17:27.942Z,57.63
2022-09-05T06:22:06.614Z,57.81
2022-09-05T06:24:11.890Z,57.19
2022-09-05T06:27:07.481Z,56.78
2022-09-05T06:29:57.043Z,56.71
2022-09-05T06:32:41.763Z,57.07
2022-09-05T06:35:34.157Z,56.32
2022-09-05T06:38:09.530Z,56.55
2022-09-05T06:41:07.726Z,56.27
2022-09-05T06:43:55.494Z,55.58
2022-09-05T06:46:55.014Z,55.17
2022-09-05T06:49:41.787Z,55.35
2022-09-05T06:52:41.840Z,55.18
2022-09-05T06:55:34.419Z,55.35
2022-09-05T06:58:22.785Z,55.42
2022-09-05T07:00:51.571Z,55.47
2022-09-05T07:03:52.289Z,55.21
2022-09-05T07:06:46.666Z,54.75
2022-09-05T07:09:52.837Z,54.17
2022-09-05T07:12:30.022Z,54.64
2022-09-05T07:15:22.758Z,54.65
2022-09-05T07:18:11.329Z,54.62
2022-09-05T07:21:15.856Z,54.73
2022-09-05T07:24:10.001Z,54.08
2022-09-05T07:26:54.245Z,54.93
2022-09-05T07:29:34.391Z,54.44
2022-09-05T07:32:03.134Z,54.41
2022-09-05T07:34:32.170Z,54.07
2022-09-05T07:37:14.265Z,53.53
2022-09-05T07:39:55.257Z,53.60
2022-09-05T07:42:30.241Z,53.52
2022-09-05T07:45:08.512Z,53.62
2022-09-05T07:47:40.380Z,53.54
2022-09-05T07:54:30.050Z,53.73
2022-09-05T07:56:56.945Z,53.24
2022-09-05T07:57:01.149Z,53.75
2022-09-05T07:58:52.686Z,54.45
2022-09-05T08:01:22.764Z,53.99
2022-09-05T08:03:57.037Z,54.10
2022-09-05T08:07:46.437Z,53.67
2022-09-05T08:10:05.181Z,53.98
2022-09-05T08:12:31.124Z,53.87
2022-09-05T08:15:24.566Z,53.20
2022-09-05T08:18:12.056Z,52.74
2022-09-05T08:20:59.567Z,53.11
2022-09-05T08:24:09.148Z,52.42
2022-09-05T08:27:16.584Z,51.97
2022-09-05T08:30:25.719Z,52.17
2022-09-05T08:32:49.729Z,51.70
2022-09-05T08:35:29.496Z,51.54
2022-09-05T08:37:57.393Z,50.90
2022-09-05T08:40:35.966Z,50.53
2022-09-05T08:46:35.714Z,50.41
2022-09-05T08:46:40.604Z,50.76
2022-09-05T08:49:38.715Z,49.93
2022-09-05T08:52:28.150Z,49.70
2022-09-05T08:55:23.548Z,49.98
2022-09-05T08:57:56.039Z,48.64
2022-09-05T09:00:24.197Z,49.10
2022-09-05T09:03:04.899Z,48.21
2022-09-05T09:06:14.089Z,48.78
2022-09-05T09:09:03.316Z,48.93
2022-09-05T09:11:36.762Z,48.79
2022-09-05T09:14:30.905Z,48.99
2022-09-05T09:17:20.745Z,48.55
2022-09-05T09:20:07.464Z,48.60
2022-09-05T09:22:52.311Z,48.08
2022-09-05T09:25:27.911Z,48.41
2022-09-05T09:28:49.556Z,47.87
2022-09-05T09:31:45.648Z,48.09
2022-09-05T09:34:29.395Z,47.57
2022-09-05T09:37:05.197Z,47.81
2022-09-05T09:39:39.814Z,47.17
2022-09-05T09:42:45.461Z,47.55
2022-09-05T09:45:22.959Z,47.73
2022-09-05T09:48:10.742Z,46.28
2022-09-05T09:51:08.572Z,44.87
2022-09-05T09:54:03.083Z,45.17
2022-09-05T09:56:48.079Z,44.62
2022-09-05T09:59:54.052Z,44.89
2022-09-05T10:04:36.703Z,44.67
2022-09-05T10:10:45.542Z,44.21
2022-09-05T10:10:49.405Z,44.30
2022-09-05T10:12:39.161Z,44.37
2022-09-05T10:15:31.311Z,44.72
2022-09-05T10:18:32.544Z,44.05
2022-09-05T10:21:16.019Z,44.56
2022-09-05T10:24:21.661Z,44.34
2022-09-05T10:27:10.715Z,43.96
2022-09-05T10:29:46.405Z,43.45
2022-09-05T10:35:11.522Z,43.24
2022-09-05T10:35:25.752Z,42.49
2022-09-05T10:38:07.752Z,42.05
2022-09-05T10:41:08.113Z,42.47
2022-09-05T10:43:31.014Z,42.05
2022-09-05T10:45:57.526Z,41.74
2022-09-05T10:48:52.886Z,41.73
2022-09-05T10:51:32.360Z,41.19
2022-09-05T10:54:29.179Z,41.76
2022-09-05T10:57:11.587Z,40.38
2022-09-05T11:01:45.372Z,40.64
2022-09-05T11:02:57.968Z,40.31
2022-09-05T11:05:36.119Z,40.48
2022-09-05T11:08:26.769Z,39.59
2022-09-05T11:11:34.763Z,40.23
2022-09-05T11:14:26.560Z,40.17
2022-09-05T11:17:02.188Z,39.52
2022-09-05T11:20:08.028Z,39.76
2022-09-05T11:22:49.090Z,39.50
2022-09-05T11:25:39.928Z,39.18
2022-09-05T11:28:18.786Z,39.57
2022-09-05T11:30:53.285Z,39.43
2022-09-05T11:39:59.806Z,39.01
2022-09-05T11:40:07.455Z,38.35
2022-09-05T11:40:31.417Z,38.25
2022-09-05T11:43:08.233Z,37.79
2022-09-05T11:45:58.759Z,37.52
2022-09-05T11:48:59.698Z,37.66
2022-09-05T11:52:03.572Z,37.42
2022-09-05T11:54:55.739Z,37.81
2022-09-05T11:57:45.854Z,37.68
2022-09-05T12:00:33.125Z,37.24
2022-09-05T12:03:58.261Z,37.80
2022-09-05T12:07:26.391Z,36.33
2022-09-05T12:10:03.213Z,36.18
2022-09-05T12:12:54.085Z,36.33
2022-09-05T12:15:26.068Z,36.52
2022-09-05T12:18:21.685Z,36.15
2022-09-05T12:21:10.343Z,36.12
2022-09-05T12:24:49.802Z,35.56
2022-09-05T12:27:42.196Z,35.31
2022-09-05T12:30:04.480Z,34.89
2022-09-05T12:35:50.065Z,35.27
2022-09-05T12:41:32.015Z,35.48
2022-09-05T12:41:42.270Z,35.11
2022-09-05T12:41:43.000Z,35.29
2022-09-05T12:44:45.056Z,36.03
2022-09-05T12:47:19.404Z,34.63
2022-09-05T12:50:02.671Z,34.31
2022-09-05T12:52:31.498Z,34.27
2022-09-05T12:55:05.057Z,34.80
2022-09-05T13:03:05.943Z,34.59
2022-09-05T13:03:09.852Z,35.06
2022-09-05T13:03:30.024Z,34.99
2022-09-05T13:06:24.911Z,34.38
2022-09-05T13:08:59.357Z,35.24
2022-09-05T13:14:56.208Z,34.73
2022-09-05T13:15:02.695Z,35.71
2022-09-05T13:17:14.133Z,34.97
2022-09-05T13:19:51.275Z,34.65
2022-09-05T13:22:22.559Z,34.97
2022-09-05T13:25:16.625Z,34.11
2022-09-05T13:27:56.756Z,34.30
2022-09-05T13:33:28.404Z,34.08
2022-09-05T13:38:01.200Z,34.26
2022-09-05T13:38:14.031Z,34.02
2022-09-05T13:39:06.876Z,34.57
2022-09-05T13:41:41.931Z,34.39
2022-09-05T13:44:27.677Z,35.12
2022-09-05T13:47:30.649Z,34.96
2022-09-05T13:50:33.826Z,34.63
2022-09-05T13:53:15.562Z,34.74
2022-09-05T13:56:03.348Z,35.01
2022-09-05T13:58:39.876Z,34.92
2022-09-05T14:01:37.463Z,34.52
2022-09-05T14:07:55.797Z,35.16
2022-09-05T14:10:28.614Z,34.70
2022-09-05T14:13:07.548Z,34.02
2022-09-05T14:15:54.360Z,33.94
2022-09-05T14:18:30.006Z,33.81
2022-09-05T14:21:17.772Z,33.82
2022-09-05T14:23:56.793Z,34.41
2022-09-05T14:26:29.976Z,34.33
2022-09-05T14:29:26.216Z,33.80
2022-09-05T14:37:34.374Z,33.95
2022-09-05T14:38:00.570Z,33.55
2022-09-05T14:38:28.823Z,33.18
2022-09-05T14:41:29.128Z,33.77
2022-09-05T14:44:23.266Z,34.41
2022-09-05T14:47:35.340Z,35.03
2022-09-05T14:50:13.619Z,35.35
2022-09-05T14:57:23.546Z,34.20
2022-09-05T15:02:39.766Z,33.43
2022-09-05T15:02:53.586Z,33.58
2022-09-05T15:05:15.893Z,33.76
2022-09-05T15:07:47.912Z,34.31
2022-09-05T15:12:21.379Z,33.75
2022-09-05T15:13:16.815Z,33.93
2022-09-05T15:16:02.260Z,33.96
2022-09-05T15:18:34.049Z,33.64
2022-09-05T15:21:35.382Z,34.25
2022-09-05T15:24:04.267Z,34.16
2022-09-05T15:26:47.249Z,35.02
2022-09-05T15:29:14.773Z,35.21
2022-09-05T15:31:41.910Z,35.62
2022-09-05T15:34:26.490Z,35.27
2022-09-05T15:36:55.145Z,35.15
2022-09-05T15:39:35.698Z,34.87
2022-09-05T15:42:21.484Z,34.91
2022-09-05T15:45:08.572Z,34.38
2022-09-05T15:47:38.770Z,34.28
2022-09-05T15:50:21.842Z,34.53
2022-09-05T15:52:55.229Z,34.68
2022-09-05T15:55:26.747Z,35.12
2022-09-05T15:58:05.819Z,35.03
2022-09-05T16:00:46.174Z,35.18
2022-09-05T16:04:27.109Z,35.35
2022-09-05T16:10:28.383Z,35.33
2022-09-05T16:10:41.440Z,35.43
2022-09-05T16:12:16.666Z,35.60
2022-09-05T16:15:19.849Z,35.92
2022-09-05T16:23:14.715Z,35.57
2022-09-05T16:23:34.265Z,36.08
2022-09-05T16:23:41.555Z,35.97
2022-09-05T16:26:30.377Z,35.79
2022-09-05T16:29:04.001Z,35.97
2022-09-05T16:31:40.500Z,35.88
2022-09-05T16:34:16.158Z,35.86
2022-09-05T16:37:07.851Z,36.28
2022-09-05T16:39:45.262Z,36.35
2022-09-05T16:42:46.815Z,36.44
2022-09-05T16:45:22.939Z,36.43
2022-09-05T16:48:23.390Z,36.46
2022-09-05T16:51:13.342Z,36.84
2022-09-05T16:54:10.296Z,36.62
2022-09-05T16:56:47.093Z,36.46
2022-09-05T16:59:19.672Z,36.93
2022-09-05T17:02:07.504Z,37.34
2022-09-05T17:05:11.026Z,37.07
2022-09-05T17:08:02.807Z,37.41
2022-09-05T17:10:40.834Z,37.88
2022-09-05T17:13:11.576Z,37.68
2022-09-05T17:15:51.533Z,38.15
2022-09-05T17:18:24.504Z,37.77
2022-09-05T17:20:59.001Z,37.97
2022-09-05T17:29:15.125Z,38.45
2022-09-05T17:29:33.612Z,38.62
2022-09-05T17:32:51.948Z,38.82
2022-09-05T17:35:46.641Z,39.08
2022-09-05T17:38:36.298Z,38.74
2022-09-05T17:41:14.843Z,39.12
2022-09-05T17:43:42.378Z,39.45
2022-09-05T17:46:20.429Z,39.67
2022-09-05T17:48:49.231Z,39.57
2022-09-05T17:51:34.361Z,40.16
2022-09-05T17:54:03.053Z,40.21
2022-09-05T17:56:35.918Z,40.32
2022-09-05T17:59:28.352Z,40.31
2022-09-05T18:02:06.836Z,40.51
2022-09-05T18:04:50.067Z,40.30
2022-09-05T18:07:19.217Z,41.15
2022-09-05T18:10:14.885Z,41.04
2022-09-05T18:15:34.259Z,40.69
2022-09-05T18:18:05.280Z,41.21
2022-09-05T18:21:21.365Z,41.41
2022-09-05T18:23:54.789Z,41.46
2022-09-05T18:26:24.482Z,41.60
2022-09-05T18:29:14.699Z,41.85
2022-09-05T18:31:43.478Z,41.84
2022-09-05T18:34:14.313Z,42.01
2022-09-05T18:36:43.737Z,42.20
2022-09-05T18:39:29.408Z,42.01
2022-09-05T18:42:33.614Z,42.58
2022-09-05T18:45:15.091Z,42.22
2022-09-05T18:48:03.573Z,42.76
2022-09-05T18:50:37.616Z,42.58
2022-09-05T18:53:13.287Z,42.90
2022-09-05T18:56:13.551Z,43.00
2022-09-05T18:59:10.014Z,42.99
2022-09-05T19:01:51.016Z,43.64
2022-09-05T19:04:40.377Z,43.33
2022-09-05T19:07:17.097Z,43.06
2022-09-05T19:10:34.820Z,43.82
2022-09-05T19:13:08.810Z,43.47
2022-09-05T19:15:52.867Z,44.06
2022-09-05T19:19:10.004Z,44.23
2022-09-05T19:21:40.452Z,44.56
2022-09-05T19:24:11.323Z,44.61
2022-09-05T19:26:38.530Z,44.66
2022-09-05T19:35:29.387Z,44.95
2022-09-05T19:36:54.137Z,45.19
2022-09-05T19:36:54.642Z,44.58
2022-09-05T19:37:48.464Z,45.59
2022-09-05T19:46:15.431Z,45.47
2022-09-05T19:47:29.585Z,45.45
2022-09-05T19:47:36.584Z,45.75
2022-09-05T19:49:11.222Z,45.96
2022-09-05T19:51:40.949Z,46.47
2022-09-05T19:54:08.704Z,46.29
2022-09-05T19:56:45.896Z,46.53
2022-09-05T19:59:22.670Z,46.21
2022-09-05T20:01:51.853Z,46.57
2022-09-05T20:04:20.554Z,46.48
2022-09-05T20:06:49.459Z,46.64
2022-09-05T20:09:19.126Z,46.94
2022-09-05T20:12:00.645Z,47.08
2022-09-05T20:14:36.646Z,47.72
2022-09-05T20:17:26.889Z,47.89
2022-09-05T20:20:15.969Z,47.71
2022-09-05T20:22:50.671Z,47.95
2022-09-05T20:25:36.786Z,47.46
2022-09-05T20:28:10.986Z,48.02
2022-09-05T20:30:42.917Z,47.58
2022-09-05T20:33:25.060Z,47.40
2022-09-05T20:38:28.323Z,47.55
2022-09-05T20:43:18.672Z,47.98
2022-09-05T20:43:19.663Z,48.00
2022-09-05T20:44:48.290Z,48.08
2022-09-05T20:53:53.503Z,48.22
2022-09-05T20:54:14.212Z,48.53
2022-09-05T20:54:24.766Z,48.76
2022-09-05T20:56:22.451Z,48.32
2022-09-05T20:58:50.421Z,48.50
2022-09-05T21:01:24.527Z,48.93
2022-09-05T21:04:02.679Z,48.64
2022-09-05T21:06:34.706Z,49.02
2022-09-05T21:09:14.289Z,49.31
2022-09-05T21:11:42.610Z,49.33
2022-09-05T21:14:10.600Z,49.12
2022-09-05T21:16:47.610Z,49.01
2022-09-05T21:19:27.893Z,49.27
2022-09-05T21:22:04.867Z,49.71
2022-09-05T21:24:31.566Z,49.71
2022-09-05T21:27:22.425Z,49.80
2022-09-05T21:29:58.714Z,49.80
2022-09-05T21:32:36.273Z,50.19
2022-09-05T21:35:33.916Z,50.19
2022-09-05T21:37:53.755Z,49.92
2022-09-05T21:40:21.315Z,49.85
2022-09-05T21:47:39.709Z,50.21
2022-09-05T21:47:43.758Z,50.51
2022-09-05T21:48:23.817Z,50.10
2022-09-05T21:50:59.662Z,50.38
2022-09-05T21:57:00.418Z,50.92
2022-09-05T21:59:18.403Z,51.13
2022-09-05T21:59:38.841Z,50.79
2022-09-05T22:02:13.451Z,50.79
2022-09-05T22:04:40.989Z,50.89
2022-09-05T22:07:08.950Z,50.94
2022-09-05T22:09:35.377Z,51.43
2022-09-05T22:12:07.337Z,51.11
2022-09-05T22:14:48.450Z,51.27
2022-09-05T22:17:14.913Z,51.09
2022-09-05T22:19:41.355Z,51.20
2022-09-05T22:22:17.575Z,51.43
2022-09-05T22:24:50.261Z,51.17
2022-09-05T22:27:19.817Z,51.43
2022-09-05T22:29:48.951Z,51.91
2022-09-05T22:32:25.864Z,52.00
2022-09-05T22:35:26.895Z,51.95
2022-09-05T22:37:49.400Z,52.25
2022-09-05T22:40:26.418Z,52.27
2022-09-05T22:43:02.217Z,52.80
2022-09-05T22:45:30.357Z,52.76
2022-09-05T22:47:57.917Z,52.78
2022-09-05T22:50:25.098Z,52.27
2022-09-05T22:52:52.461Z,52.34
2022-09-05T22:55:19.022Z,53.26
2022-09-05T22:57:45.443Z,53.28
2022-09-05T23:00:12.547Z,53.40
2022-09-05T23:02:38.969Z,54.01
2022-09-05T23:05:06.890Z,53.96
2022-09-05T23:07:33.378Z,53.66
2022-09-05T23:10:00.143Z,54.31
2022-09-05T23:12:27.131Z,54.31
2022-09-05T23:14:54.037Z,54.97
2022-09-05T23:17:20.608Z,55.24
2022-09-05T23:19:47.146Z,55.29
2022-09-05T23:22:13.603Z,55.39
2022-09-05T23:24:40.200Z,56.11
2022-09-05T23:27:06.649Z,56.09
2022-09-05T23:29:33.227Z,56.03
2022-09-05T23:32:03.004Z,56.47
2022-09-05T23:34:32.974Z,57.01
2022-09-05T23:37:00.127Z,56.56
2022-09-05T23:39:26.860Z,57.37
2022-09-05T23:41:53.710Z,57.04
2022-09-05T23:44:20.303Z,57.91
2022-09-05T23:46:46.705Z,57.84
2022-09-05T23:49:13.249Z,58.38
2022-09-05T23:51:39.719Z,58.14
2022-09-05T23:54:06.209Z,58.06
2022-09-05T23:56:32.722Z,57.71
2022-09-05T23:58:59.990Z,58.61
